Time,TemperatureF,DewpointF,PressureIn,WindDirection,WindDirectionDegrees,WindSpeedMPH,WindSpeedGustMPH,Humidity,HourlyPrecipIn,Conditions,Clouds,dailyrainin,SoftwareType,DateUTC
2013-06-27 00:03:00,59.2,56.0,30.09,North,0,0.0,0.0,89,0.00,,,0.00,WUHU216HW,2013-06-27 07:03:00,
2013-06-27 00:08:00,59.2,56.0,30.08,North,0,0.0,0.0,89,0.00,,,0.00,WUHU216HW,2013-06-27 07:08:00,
2013-06-27 00:13:00,59.2,55.7,30.08,North,0,0.0,0.0,88,0.00,,,0.00,WUHU216HW,2013-06-27 07:13:00,
2013-06-27 00:18:00,59.0,55.5,30.08,North,0,0.0,0.0,88,0.00,,,0.00,WUHU216HW,2013-06-27 07:18:00,
2013-06-27 00:23:00,59.0,55.5,30.08,North,0,0.0,0.0,88,0.00,,,0.00,WUHU216HW,2013-06-27 07:23:00,
2013-06-27 00:28:00,59.0,55.5,30.08,North,0,0.0,0.0,88,0.00,,,0.00,WUHU216HW,2013-06-27 07:28:00,
2013-06-27 00:33:00,59.0,55.8,30.07,North,0,0.0,0.0,89,0.00,,,0.00,WUHU216HW,2013-06-27 07:33:00,
2013-06-27 00:38:00,58.9,55.6,30.07,North,0,0.0,0.0,89,0.00,,,0.00,WUHU216HW,2013-06-27 07:38:00,
2013-06-27 00:43:00,58.9,55.4,30.07,North,0,0.0,0.0,88,0.00,,,0.00,WUHU216HW,2013-06-27 07:43:00,
2013-06-27 00:48:00,58.9,55.4,30.08,North,0,0.0,0.0,88,0.00,,,0.00,WUHU216HW,2013-06-27 07:48:00,
2013-06-27 00:53:00,58.9,55.4,30.08,North,0,0.0,0.0,88,0.00,,,0.00,WUHU216HW,2013-06-27 07:53:00,
2013-06-27 00:58:00,59.0,55.8,30.08,North,0,0.0,0.0,89,0.00,,,0.00,WUHU216HW,2013-06-27 07:58:00,
2013-06-27 01:03:00,59.0,55.8,30.08,North,0,0.0,0.0,89,0.00,,,0.00,WUHU216HW,2013-06-27 08:03:00,
2013-06-27 01:08:00,59.0,55.8,30.08,North,0,0.0,0.0,89,0.00,,,0.00,WUHU216HW,2013-06-27 08:08:00,
2013-06-27 01:13:00,59.2,56.0,30.08,North,0,0.0,0.0,89,0.00,,,0.00,WUHU216HW,2013-06-27 08:13:00,
2013-06-27 01:18:00,59.0,55.8,30.08,North,0,0.0,0.0,89,0.00,,,0.00,WUHU216HW,2013-06-27 08:18:00,
2013-06-27 01:23:00,59.0,55.8,30.08,North,0,0.0,0.0,89,0.00,,,0.00,WUHU216HW,2013-06-27 08:23:00,
2013-06-27 01:28:00,59.0,55.8,30.08,North,0,0.0,0.0,89,0.00,,,0.00,WUHU216HW,2013-06-27 08:28:00,
2013-06-27 01:33:00,59.2,56.0,30.08,North,0,0.0,0.0,89,0.00,,,0.00,WUHU216HW,2013-06-27 08:33:00,
2013-06-27 01:38:00,59.2,56.0,30.08,North,0,0.0,0.0,89,0.00,,,0.00,WUHU216HW,2013-06-27 08:38:00,
2013-06-27 01:43:00,59.2,56.0,30.08,North,0,0.0,0.0,89,0.00,,,0.00,WUHU216HW,2013-06-27 08:43:00,
2013-06-27 01:48:00,59.2,56.0,30.08,North,0,0.0,0.0,89,0.00,,,0.00,WUHU216HW,2013-06-27 08:48:00,
2013-06-27 01:53:00,59.2,56.0,30.08,North,0,0.0,0.0,89,0.00,,,0.00,WUHU216HW,2013-06-27 08:53:00,
2013-06-27 01:58:00,59.2,56.0,30.07,North,0,0.0,0.0,89,0.00,,,0.00,WUHU216HW,2013-06-27 08:58:00,
2013-06-27 02:04:00,59.0,55.8,30.07,North,0,0.0,0.0,89,0.00,,,0.00,WUHU216HW,2013-06-27 09:04:00,
2013-06-27 02:09:00,59.0,55.8,30.07,North,0,0.0,0.0,89,0.00,,,0.00,WUHU216HW,2013-06-27 09:09:00,
2013-06-27 02:14:00,59.0,55.8,30.08,North,0,0.0,0.0,89,0.00,,,0.00,WUHU216HW,2013-06-27 09:14:00,
2013-06-27 02:19:00,59.0,55.8,30.08,North,0,0.0,0.0,89,0.00,,,0.00,WUHU216HW,2013-06-27 09:19:00,
2013-06-27 02:24:00,59.0,56.2,30.08,North,0,0.0,0.0,90,0.00,,,0.00,WUHU216HW,2013-06-27 09:24:00,
2013-06-27 02:29:00,59.0,56.2,30.08,North,0,0.0,0.0,90,0.00,,,0.00,WUHU216HW,2013-06-27 09:29:00,
2013-06-27 02:34:00,59.0,56.2,30.08,North,0,0.0,0.0,90,0.00,,,0.00,WUHU216HW,2013-06-27 09:34:00,
2013-06-27 02:39:00,59.0,56.2,30.08,North,0,0.0,0.0,90,0.00,,,0.00,WUHU216HW,2013-06-27 09:39:00,
2013-06-27 02:44:00,58.9,56.0,30.08,North,0,0.0,0.0,90,0.00,,,0.00,WUHU216HW,2013-06-27 09:44:00,
2013-06-27 02:49:00,58.9,56.0,30.08,North,0,0.0,0.0,90,0.00,,,0.00,WUHU216HW,2013-06-27 09:49:00,
2013-06-27 02:54:00,58.9,56.0,30.08,North,0,0.0,0.0,90,0.00,,,0.00,WUHU216HW,2013-06-27 09:54:00,
2013-06-27 02:59:00,58.9,56.0,30.08,North,0,0.0,0.0,90,0.00,,,0.00,WUHU216HW,2013-06-27 09:59:00,
2013-06-27 03:04:00,58.7,55.8,30.07,North,0,0.0,0.0,90,0.00,,,0.00,WUHU216HW,2013-06-27 10:04:00,
2013-06-27 03:09:00,58.7,55.8,30.07,North,0,0.0,0.0,90,0.00,,,0.00,WUHU216HW,2013-06-27 10:09:00,
2013-06-27 03:14:00,58.7,55.8,30.07,North,0,0.0,0.0,90,0.00,,,0.00,WUHU216HW,2013-06-27 10:14:00,
2013-06-27 03:19:00,58.7,55.8,30.07,North,0,0.0,0.0,90,0.00,,,0.00,WUHU216HW,2013-06-27 10:19:00,
2013-06-27 03:24:00,58.7,55.8,30.07,North,0,0.0,0.0,90,0.00,,,0.00,WUHU216HW,2013-06-27 10:24:00,
2013-06-27 03:29:00,58.7,55.8,30.07,North,0,0.0,0.0,90,0.01,,,0.01,WUHU216HW,2013-06-27 10:29:00,
2013-06-27 03:34:00,58.7,55.8,30.07,North,0,0.0,0.0,90,0.01,,,0.01,WUHU216HW,2013-06-27 10:34:00,
2013-06-27 03:39:00,58.7,55.8,30.07,North,0,0.0,0.0,90,0.01,,,0.01,WUHU216HW,2013-06-27 10:39:00,
2013-06-27 03:44:00,58.7,56.1,30.07,North,0,0.0,0.0,91,0.01,,,0.01,WUHU216HW,2013-06-27 10:44:00,
2013-06-27 03:49:00,58.7,56.1,30.07,North,0,0.0,0.0,91,0.01,,,0.01,WUHU216HW,2013-06-27 10:49:00,
2013-06-27 03:54:00,58.7,55.8,30.07,North,0,0.0,0.0,90,0.01,,,0.01,WUHU216HW,2013-06-27 10:54:00,
2013-06-27 03:59:00,58.7,55.8,30.07,North,0,0.0,0.0,90,0.01,,,0.01,WUHU216HW,2013-06-27 10:59:00,
2013-06-27 04:04:00,58.7,55.8,30.07,North,0,0.0,0.0,90,0.02,,,0.02,WUHU216HW,2013-06-27 11:04:00,
2013-06-27 04:09:00,58.7,55.8,30.07,North,0,0.0,0.0,90,0.02,,,0.02,WUHU216HW,2013-06-27 11:09:00,
2013-06-27 04:14:00,58.7,55.8,30.07,North,0,0.0,0.0,90,0.02,,,0.02,WUHU216HW,2013-06-27 11:14:00,
2013-06-27 04:19:00,58.7,55.8,30.06,North,0,0.0,0.0,90,0.02,,,0.02,WUHU216HW,2013-06-27 11:19:00,
2013-06-27 04:24:00,58.7,55.8,30.07,North,0,0.0,0.0,90,0.01,,,0.02,WUHU216HW,2013-06-27 11:24:00,
2013-06-27 04:29:00,58.7,55.8,30.06,North,0,0.0,0.0,90,0.02,,,0.03,WUHU216HW,2013-06-27 11:29:00,
2013-06-27 04:34:00,58.7,55.8,30.06,North,0,0.0,0.0,90,0.02,,,0.03,WUHU216HW,2013-06-27 11:34:00,
2013-06-27 04:39:00,58.7,55.8,30.06,North,0,0.0,0.0,90,0.02,,,0.03,WUHU216HW,2013-06-27 11:39:00,
2013-06-27 04:44:00,58.7,55.8,30.06,North,0,0.0,0.0,90,0.02,,,0.03,WUHU216HW,2013-06-27 11:44:00,
2013-06-27 04:49:00,58.7,55.8,30.06,North,0,0.0,0.0,90,0.02,,,0.03,WUHU216HW,2013-06-27 11:49:00,
2013-06-27 04:54:00,58.7,56.1,30.06,North,0,0.0,0.0,91,0.02,,,0.03,WUHU216HW,2013-06-27 11:54:00,
2013-06-27 04:59:00,58.5,55.9,30.06,North,0,0.0,0.0,91,0.03,,,0.04,WUHU216HW,2013-06-27 11:59:00,
2013-06-27 05:04:00,58.5,55.9,30.06,North,0,0.0,0.0,91,0.02,,,0.04,WUHU216HW,2013-06-27 12:04:00,
2013-06-27 05:09:00,58.7,56.1,30.05,North,0,0.0,0.0,91,0.02,,,0.04,WUHU216HW,2013-06-27 12:09:00,
2013-06-27 05:14:00,58.7,56.1,30.06,North,0,0.0,0.0,91,0.02,,,0.04,WUHU216HW,2013-06-27 12:14:00,
2013-06-27 05:19:00,58.7,56.1,30.06,North,0,0.0,0.0,91,0.02,,,0.04,WUHU216HW,2013-06-27 12:19:00,
2013-06-27 05:24:00,58.7,56.1,30.06,North,0,0.0,0.0,91,0.02,,,0.04,WUHU216HW,2013-06-27 12:24:00,
2013-06-27 05:31:00,58.7,56.1,30.07,North,0,0.0,0.0,91,0.01,,,0.04,WUHU216HW,2013-06-27 12:31:00,
2013-06-27 05:36:00,58.7,56.1,30.07,North,0,0.0,0.0,91,0.02,,,0.05,WUHU216HW,2013-06-27 12:36:00,
2013-06-27 05:41:00,58.9,56.3,30.07,North,0,0.0,0.0,91,0.02,,,0.05,WUHU216HW,2013-06-27 12:41:00,
2013-06-27 05:46:00,58.9,56.3,30.07,North,0,0.0,0.0,91,0.02,,,0.05,WUHU216HW,2013-06-27 12:46:00,
2013-06-27 05:51:00,58.9,56.3,30.07,North,0,0.0,0.0,91,0.02,,,0.05,WUHU216HW,2013-06-27 12:51:00,
2013-06-27 05:56:00,58.9,56.3,30.07,North,0,0.0,0.0,91,0.01,,,0.05,WUHU216HW,2013-06-27 12:56:00,
2013-06-27 06:01:00,58.9,56.3,30.07,North,0,0.0,0.0,91,0.01,,,0.05,WUHU216HW,2013-06-27 13:01:00,
2013-06-27 06:06:00,58.7,56.1,30.07,North,0,0.0,0.0,91,0.02,,,0.06,WUHU216HW,2013-06-27 13:06:00,
2013-06-27 06:11:00,58.9,56.3,30.07,North,0,0.0,0.0,91,0.02,,,0.06,WUHU216HW,2013-06-27 13:11:00,
2013-06-27 06:16:00,59.0,56.4,30.07,North,0,0.0,0.0,91,0.02,,,0.06,WUHU216HW,2013-06-27 13:16:00,
2013-06-27 06:21:00,59.0,56.4,30.07,North,0,0.0,0.0,91,0.02,,,0.06,WUHU216HW,2013-06-27 13:21:00,
2013-06-27 06:26:00,59.0,56.7,30.07,North,0,0.0,0.0,92,0.02,,,0.06,WUHU216HW,2013-06-27 13:26:00,
2013-06-27 06:31:00,59.0,56.7,30.07,North,0,0.0,0.0,92,0.02,,,0.07,WUHU216HW,2013-06-27 13:31:00,
2013-06-27 06:36:00,59.2,56.9,30.08,North,0,0.0,0.0,92,0.02,,,0.07,WUHU216HW,2013-06-27 13:36:00,
2013-06-27 06:41:00,59.2,56.9,30.08,North,0,0.0,0.0,92,0.02,,,0.07,WUHU216HW,2013-06-27 13:41:00,
2013-06-27 06:46:00,59.4,57.1,30.08,North,0,0.0,0.0,92,0.02,,,0.07,WUHU216HW,2013-06-27 13:46:00,
2013-06-27 06:51:00,59.4,57.1,30.08,North,0,0.0,0.0,92,0.02,,,0.07,WUHU216HW,2013-06-27 13:51:00,
2013-06-27 06:56:00,59.4,57.1,30.08,North,0,0.0,0.0,92,0.02,,,0.07,WUHU216HW,2013-06-27 13:56:00,
2013-06-27 07:01:00,59.6,57.2,30.08,North,0,0.0,0.0,92,0.02,,,0.07,WUHU216HW,2013-06-27 14:01:00,
2013-06-27 07:06:00,59.6,57.2,30.08,North,0,0.0,0.0,92,0.01,,,0.07,WUHU216HW,2013-06-27 14:06:00,
2013-06-27 07:11:00,59.8,57.4,30.08,North,0,0.0,0.0,92,0.01,,,0.07,WUHU216HW,2013-06-27 14:11:00,
2013-06-27 07:16:00,59.8,57.4,30.09,North,0,0.0,0.0,92,0.01,,,0.07,WUHU216HW,2013-06-27 14:16:00,
2013-06-27 07:21:00,60.1,57.8,30.09,North,0,0.0,0.0,92,0.01,,,0.07,WUHU216HW,2013-06-27 14:21:00,
2013-06-27 07:26:00,60.3,58.0,30.09,North,0,0.0,0.0,92,0.01,,,0.07,WUHU216HW,2013-06-27 14:26:00,
2013-06-27 07:31:00,60.5,58.1,30.09,North,0,0.0,0.0,92,0.01,,,0.08,WUHU216HW,2013-06-27 14:31:00,
2013-06-27 07:36:00,60.8,58.5,30.09,North,0,0.0,0.0,92,0.01,,,0.08,WUHU216HW,2013-06-27 14:36:00,
2013-06-27 07:41:00,61.0,58.7,30.10,North,0,0.0,0.0,92,0.01,,,0.08,WUHU216HW,2013-06-27 14:41:00,
2013-06-27 07:46:00,61.2,58.6,30.10,North,0,0.0,0.0,91,0.01,,,0.08,WUHU216HW,2013-06-27 14:46:00,
2013-06-27 07:51:00,61.6,59.0,30.09,North,0,0.0,0.0,91,0.01,,,0.08,WUHU216HW,2013-06-27 14:51:00,
2013-06-27 07:56:00,61.7,59.1,30.10,North,0,0.0,0.0,91,0.01,,,0.08,WUHU216HW,2013-06-27 14:56:00,
2013-06-27 08:01:00,62.1,59.5,30.10,North,0,0.0,0.0,91,0.01,,,0.08,WUHU216HW,2013-06-27 15:01:00,
2013-06-27 08:06:00,62.3,59.4,30.10,North,0,0.0,0.0,90,0.01,,,0.08,WUHU216HW,2013-06-27 15:06:00,
2013-06-27 08:11:00,62.3,59.4,30.10,North,0,0.0,0.0,90,0.01,,,0.08,WUHU216HW,2013-06-27 15:11:00,
2013-06-27 08:16:00,62.3,59.4,30.10,North,0,0.0,0.0,90,0.01,,,0.08,WUHU216HW,2013-06-27 15:16:00,
2013-06-27 08:21:00,62.1,59.2,30.10,North,0,0.0,0.0,90,0.01,,,0.08,WUHU216HW,2013-06-27 15:21:00,
2013-06-27 08:26:00,62.1,59.2,30.10,North,0,0.0,0.0,90,0.00,,,0.08,WUHU216HW,2013-06-27 15:26:00,
2013-06-27 08:31:00,62.1,59.2,30.10,North,0,0.0,0.0,90,0.00,,,0.08,WUHU216HW,2013-06-27 15:31:00,
2013-06-27 08:36:00,62.3,59.4,30.10,North,0,0.0,0.0,90,0.00,,,0.08,WUHU216HW,2013-06-27 15:36:00,
2013-06-27 08:41:00,62.1,58.9,30.10,North,0,0.0,0.0,89,0.00,,,0.08,WUHU216HW,2013-06-27 15:41:00,
2013-06-27 08:46:00,62.3,59.4,30.10,North,0,0.0,0.0,90,0.01,,,0.09,WUHU216HW,2013-06-27 15:46:00,
2013-06-27 08:51:00,62.3,59.0,30.11,North,0,0.0,0.0,89,0.01,,,0.09,WUHU216HW,2013-06-27 15:51:00,
2013-06-27 08:56:00,62.5,59.2,30.11,North,0,0.0,0.0,89,0.01,,,0.09,WUHU216HW,2013-06-27 15:56:00,
2013-06-27 09:01:00,62.8,59.6,30.11,North,0,0.0,0.0,89,0.01,,,0.09,WUHU216HW,2013-06-27 16:01:00,
2013-06-27 09:06:00,62.8,59.6,30.11,North,0,0.0,0.0,89,0.01,,,0.09,WUHU216HW,2013-06-27 16:06:00,
2013-06-27 09:11:00,63.0,59.8,30.11,North,0,0.0,0.0,89,0.01,,,0.09,WUHU216HW,2013-06-27 16:11:00,
2013-06-27 09:16:00,63.2,59.9,30.11,North,0,0.0,0.0,89,0.01,,,0.09,WUHU216HW,2013-06-27 16:16:00,
2013-06-27 09:21:00,63.4,60.1,30.11,North,0,0.0,0.0,89,0.01,,,0.09,WUHU216HW,2013-06-27 16:21:00,
2013-06-27 09:26:00,63.7,60.1,30.12,North,0,0.0,0.0,88,0.01,,,0.09,WUHU216HW,2013-06-27 16:26:00,
2013-06-27 09:31:00,63.9,60.3,30.12,North,0,0.0,0.0,88,0.01,,,0.09,WUHU216HW,2013-06-27 16:31:00,
2013-06-27 09:36:00,64.1,60.2,30.12,North,0,0.0,0.0,87,0.01,,,0.09,WUHU216HW,2013-06-27 16:36:00,
2013-06-27 09:41:00,64.4,60.6,30.12,North,0,0.0,0.0,87,0.01,,,0.09,WUHU216HW,2013-06-27 16:41:00,
2013-06-27 09:46:00,64.4,60.6,30.12,North,0,0.0,0.0,87,0.00,,,0.09,WUHU216HW,2013-06-27 16:46:00,
2013-06-27 09:52:00,64.6,60.7,30.13,North,0,0.0,0.0,87,0.00,,,0.09,WUHU216HW,2013-06-27 16:52:00,
2013-06-27 09:57:00,64.8,60.8,30.13,North,0,0.0,0.0,87,0.00,,,0.09,WUHU216HW,2013-06-27 16:57:00,
2013-06-27 10:02:00,65.0,60.7,30.13,North,0,0.0,0.0,86,0.00,,,0.09,WUHU216HW,2013-06-27 17:02:00,
2013-06-27 10:07:00,65.2,61.2,30.13,North,0,0.0,0.0,87,0.00,,,0.09,WUHU216HW,2013-06-27 17:07:00,
2013-06-27 10:12:00,65.5,61.2,30.13,North,0,0.0,0.0,86,0.00,,,0.09,WUHU216HW,2013-06-27 17:12:00,
2013-06-27 10:17:00,65.2,60.6,30.13,North,0,0.0,0.0,85,0.00,,,0.09,WUHU216HW,2013-06-27 17:17:00,
2013-06-27 10:22:00,64.8,60.2,30.13,North,0,0.0,0.0,85,0.00,,,0.09,WUHU216HW,2013-06-27 17:22:00,
2013-06-27 10:27:00,65.2,61.2,30.13,North,0,0.0,0.0,87,0.01,,,0.10,WUHU216HW,2013-06-27 17:27:00,
2013-06-27 10:32:00,65.5,61.2,30.13,North,0,0.0,0.0,86,0.01,,,0.10,WUHU216HW,2013-06-27 17:32:00,
2013-06-27 10:37:00,65.0,60.4,30.13,North,0,0.0,0.0,85,0.01,,,0.10,WUHU216HW,2013-06-27 17:37:00,
2013-06-27 10:42:00,65.2,61.6,30.13,North,0,0.0,0.0,88,0.01,,,0.10,WUHU216HW,2013-06-27 17:42:00,
2013-06-27 10:47:00,65.5,61.6,30.13,North,0,0.0,0.0,87,0.01,,,0.10,WUHU216HW,2013-06-27 17:47:00,
2013-06-27 10:52:00,65.9,61.6,30.14,North,0,0.0,0.0,86,0.01,,,0.10,WUHU216HW,2013-06-27 17:52:00,
2013-06-27 10:57:00,65.9,61.2,30.14,North,0,0.0,0.0,85,0.01,,,0.10,WUHU216HW,2013-06-27 17:57:00,
2013-06-27 11:03:00,66.4,61.7,30.14,North,0,0.0,0.0,85,0.01,,,0.10,WUHU216HW,2013-06-27 18:03:00,
2013-06-27 11:08:00,67.0,61.9,30.14,North,0,0.0,0.0,84,0.01,,,0.10,WUHU216HW,2013-06-27 18:08:00,
2013-06-27 11:13:00,67.0,61.7,30.14,North,0,0.0,0.0,83,0.01,,,0.10,WUHU216HW,2013-06-27 18:13:00,
2013-06-27 11:18:00,66.6,61.3,30.14,North,0,0.0,0.0,83,0.01,,,0.10,WUHU216HW,2013-06-27 18:18:00,
2013-06-27 11:23:00,66.2,60.9,30.14,North,0,0.0,0.0,83,0.01,,,0.10,WUHU216HW,2013-06-27 18:23:00,
2013-06-27 11:28:00,66.1,61.0,30.14,North,0,0.0,0.0,84,0.00,,,0.10,WUHU216HW,2013-06-27 18:28:00,
2013-06-27 11:33:00,66.1,61.4,30.14,North,0,0.0,0.0,85,0.00,,,0.10,WUHU216HW,2013-06-27 18:33:00,
2013-06-27 11:38:00,66.2,61.9,30.14,North,0,0.0,0.0,86,0.00,,,0.10,WUHU216HW,2013-06-27 18:38:00,
2013-06-27 11:43:00,66.6,62.3,30.14,North,0,0.0,0.0,86,0.00,,,0.10,WUHU216HW,2013-06-27 18:43:00,
2013-06-27 11:48:00,66.8,62.5,30.14,North,0,0.0,0.0,86,0.00,,,0.10,WUHU216HW,2013-06-27 18:48:00,
2013-06-27 11:53:00,67.3,63.0,30.14,North,0,0.0,0.0,86,0.00,,,0.10,WUHU216HW,2013-06-27 18:53:00,
2013-06-27 11:58:00,67.5,62.5,30.14,North,0,0.0,0.0,84,0.00,,,0.10,WUHU216HW,2013-06-27 18:58:00,
2013-06-27 12:03:00,67.3,62.6,30.15,North,0,0.0,0.0,85,0.00,,,0.10,WUHU216HW,2013-06-27 19:03:00,
2013-06-27 12:08:00,68.0,63.4,30.15,North,0,0.0,0.0,85,0.00,,,0.10,WUHU216HW,2013-06-27 19:08:00,
2013-06-27 12:13:00,68.2,63.2,30.15,North,0,0.0,0.0,84,0.00,,,0.10,WUHU216HW,2013-06-27 19:13:00,
2013-06-27 12:18:00,68.0,63.0,30.15,North,0,0.0,0.0,84,0.00,,,0.10,WUHU216HW,2013-06-27 19:18:00,
2013-06-27 12:23:00,68.4,63.4,30.15,North,0,0.0,0.0,84,0.00,,,0.10,WUHU216HW,2013-06-27 19:23:00,
2013-06-27 12:28:00,68.4,63.1,30.16,North,0,0.0,0.0,83,0.00,,,0.10,WUHU216HW,2013-06-27 19:28:00,
2013-06-27 12:33:00,68.6,62.9,30.16,North,0,0.0,0.0,82,0.00,,,0.10,WUHU216HW,2013-06-27 19:33:00,
2013-06-27 12:38:00,68.4,62.7,30.16,North,0,0.0,0.0,82,0.00,,,0.10,WUHU216HW,2013-06-27 19:38:00,
2013-06-27 12:43:00,68.4,63.1,30.16,North,0,0.0,0.0,83,0.00,,,0.10,WUHU216HW,2013-06-27 19:43:00,
2013-06-27 12:48:00,69.3,64.3,30.16,North,0,0.0,0.0,84,0.00,,,0.10,WUHU216HW,2013-06-27 19:48:00,
2013-06-27 12:53:00,69.3,63.5,30.16,North,0,0.0,0.0,82,0.00,,,0.10,WUHU216HW,2013-06-27 19:53:00,
2013-06-27 12:58:00,69.7,64.3,30.16,North,0,0.0,0.0,83,0.00,,,0.10,WUHU216HW,2013-06-27 19:58:00,
2013-06-27 13:03:00,70.2,64.1,30.16,North,0,0.0,0.0,81,0.00,,,0.10,WUHU216HW,2013-06-27 20:03:00,
2013-06-27 13:08:00,70.6,64.1,30.16,North,0,0.0,0.0,80,0.00,,,0.10,WUHU216HW,2013-06-27 20:08:00,
2013-06-27 13:13:00,70.9,64.1,30.16,North,0,0.0,0.0,79,0.00,,,0.10,WUHU216HW,2013-06-27 20:13:00,
2013-06-27 13:18:00,71.3,64.5,30.16,North,0,0.0,0.0,79,0.00,,,0.10,WUHU216HW,2013-06-27 20:18:00,
2013-06-27 13:23:00,71.5,64.3,30.16,North,0,0.0,0.0,78,0.00,,,0.10,WUHU216HW,2013-06-27 20:23:00,
2013-06-27 13:28:00,71.6,64.8,30.16,North,0,0.0,0.0,79,0.00,,,0.10,WUHU216HW,2013-06-27 20:28:00,
2013-06-27 13:34:00,71.6,64.5,30.16,North,0,0.0,0.0,78,0.00,,,0.10,WUHU216HW,2013-06-27 20:34:00,
2013-06-27 13:39:00,71.8,63.1,30.17,North,0,0.0,0.0,74,0.00,,,0.10,WUHU216HW,2013-06-27 20:39:00,
2013-06-27 13:44:00,71.8,63.8,30.17,North,0,0.0,0.0,76,0.00,,,0.10,WUHU216HW,2013-06-27 20:44:00,
2013-06-27 13:49:00,71.6,63.6,30.17,North,0,0.0,0.0,76,0.00,,,0.10,WUHU216HW,2013-06-27 20:49:00,
2013-06-27 13:54:00,72.2,63.8,30.17,North,0,0.0,0.0,75,0.00,,,0.10,WUHU216HW,2013-06-27 20:54:00,
2013-06-27 13:59:00,72.4,64.4,30.17,North,0,0.0,0.0,76,0.00,,,0.10,WUHU216HW,2013-06-27 20:59:00,
2013-06-27 14:04:00,72.4,63.3,30.17,North,0,0.0,0.0,73,0.00,,,0.10,WUHU216HW,2013-06-27 21:04:00,
2013-06-27 14:09:00,72.4,64.0,30.17,North,0,0.0,0.0,75,0.00,,,0.10,WUHU216HW,2013-06-27 21:09:00,
2013-06-27 14:15:00,72.5,63.8,30.18,North,0,0.0,0.0,74,0.00,,,0.10,WUHU216HW,2013-06-27 21:15:00,
2013-06-27 14:20:00,72.4,63.3,30.17,North,0,0.0,0.0,73,0.00,,,0.10,WUHU216HW,2013-06-27 21:20:00,
2013-06-27 14:25:00,72.4,63.6,30.17,North,0,0.0,0.0,74,0.00,,,0.10,WUHU216HW,2013-06-27 21:25:00,
2013-06-27 14:30:00,72.4,63.3,30.18,North,0,0.0,0.0,73,0.00,,,0.10,WUHU216HW,2013-06-27 21:30:00,
2013-06-27 14:35:00,72.2,63.1,30.18,North,0,0.0,0.0,73,0.00,,,0.10,WUHU216HW,2013-06-27 21:35:00,
2013-06-27 14:40:00,72.2,63.1,30.18,North,0,0.0,0.0,73,0.00,,,0.10,WUHU216HW,2013-06-27 21:40:00,
2013-06-27 14:45:00,72.4,63.6,30.18,North,0,0.0,0.0,74,0.00,,,0.10,WUHU216HW,2013-06-27 21:45:00,
2013-06-27 14:50:00,72.7,64.4,30.18,North,0,0.0,0.0,75,0.00,,,0.10,WUHU216HW,2013-06-27 21:50:00,
2013-06-27 14:55:00,72.7,63.6,30.18,North,0,0.0,0.0,73,0.00,,,0.10,WUHU216HW,2013-06-27 21:55:00,
2013-06-27 15:00:00,72.4,62.8,30.18,North,0,0.0,0.0,72,0.00,,,0.10,WUHU216HW,2013-06-27 22:00:00,
2013-06-27 15:05:00,72.0,62.9,30.18,North,0,0.0,0.0,73,0.00,,,0.10,WUHU216HW,2013-06-27 22:05:00,
2013-06-27 15:10:00,71.5,62.7,30.18,North,0,0.0,0.0,74,0.00,,,0.10,WUHU216HW,2013-06-27 22:10:00,
2013-06-27 15:15:00,71.3,62.6,30.18,North,0,0.0,0.0,74,0.00,,,0.10,WUHU216HW,2013-06-27 22:15:00,
2013-06-27 15:21:00,70.9,62.6,30.18,North,0,0.0,0.0,75,0.00,,,0.10,WUHU216HW,2013-06-27 22:21:00,
2013-06-27 15:27:00,70.9,62.6,30.18,North,0,0.0,0.0,75,0.00,,,0.10,WUHU216HW,2013-06-27 22:27:00,
2013-06-27 15:32:00,70.6,62.2,30.19,North,0,0.0,0.0,75,0.00,,,0.10,WUHU216HW,2013-06-27 22:32:00,
2013-06-27 15:37:00,70.6,62.6,30.19,North,0,0.0,0.0,76,0.00,,,0.10,WUHU216HW,2013-06-27 22:37:00,
2013-06-27 15:42:00,70.6,62.9,30.19,North,0,0.0,0.0,77,0.00,,,0.10,WUHU216HW,2013-06-27 22:42:00,
2013-06-27 15:47:00,70.4,62.7,30.19,North,0,0.0,0.0,77,0.00,,,0.10,WUHU216HW,2013-06-27 22:47:00,
2013-06-27 15:52:00,70.2,62.6,30.19,North,0,0.0,0.0,77,0.00,,,0.10,WUHU216HW,2013-06-27 22:52:00,
2013-06-27 15:57:00,70.2,62.6,30.19,North,0,0.0,0.0,77,0.00,,,0.10,WUHU216HW,2013-06-27 22:57:00,
2013-06-27 16:02:00,70.2,62.6,30.19,North,0,0.0,0.0,77,0.00,,,0.10,WUHU216HW,2013-06-27 23:02:00,
2013-06-27 16:07:00,70.2,62.6,30.19,North,0,0.0,0.0,77,0.00,,,0.10,WUHU216HW,2013-06-27 23:07:00,
2013-06-27 16:12:00,70.2,62.6,30.19,North,0,0.0,0.0,77,0.00,,,0.10,WUHU216HW,2013-06-27 23:12:00,
2013-06-27 16:17:00,70.0,62.4,30.20,North,0,0.0,0.0,77,0.00,,,0.10,WUHU216HW,2013-06-27 23:17:00,
2013-06-27 16:22:00,70.0,62.4,30.20,North,0,0.0,0.0,77,0.00,,,0.10,WUHU216HW,2013-06-27 23:22:00,
2013-06-27 16:27:00,69.8,62.7,30.20,North,0,0.0,0.0,78,0.00,,,0.10,WUHU216HW,2013-06-27 23:27:00,
2013-06-27 16:32:00,69.5,62.6,30.20,North,0,0.0,0.0,79,0.00,,,0.10,WUHU216HW,2013-06-27 23:32:00,
2013-06-27 16:38:00,69.5,62.6,30.20,North,0,0.0,0.0,79,0.00,,,0.10,WUHU216HW,2013-06-27 23:38:00,
2013-06-27 16:45:00,69.5,62.6,30.20,North,0,0.0,0.0,79,0.00,,,0.10,WUHU216HW,2013-06-27 23:45:00,
2013-06-27 16:50:00,69.8,63.4,30.21,North,0,0.0,0.0,80,0.00,,,0.10,WUHU216HW,2013-06-27 23:50:00,
2013-06-27 16:56:00,70.0,63.5,30.21,North,0,0.0,0.0,80,0.00,,,0.10,WUHU216HW,2013-06-27 23:56:00,
2013-06-27 17:01:00,70.6,63.4,30.20,North,0,0.0,0.0,78,0.00,,,0.10,WUHU216HW,2013-06-28 00:01:00,
2013-06-27 17:06:00,71.6,64.0,30.21,North,0,0.0,0.0,77,0.00,,,0.10,WUHU216HW,2013-06-28 00:06:00,
2013-06-27 17:11:00,72.2,64.5,30.20,North,0,0.0,0.0,77,0.00,,,0.10,WUHU216HW,2013-06-28 00:11:00,
2013-06-27 17:16:00,72.4,64.7,30.20,North,0,0.0,0.0,77,0.00,,,0.10,WUHU216HW,2013-06-28 00:16:00,
2013-06-27 17:21:00,72.7,65.1,30.20,North,0,0.0,0.0,77,0.00,,,0.10,WUHU216HW,2013-06-28 00:21:00,
2013-06-27 17:26:00,73.3,65.3,30.20,North,0,0.0,0.0,76,0.00,,,0.10,WUHU216HW,2013-06-28 00:26:00,
2013-06-27 17:32:00,73.4,64.7,30.21,North,0,0.0,0.0,74,0.00,,,0.10,WUHU216HW,2013-06-28 00:32:00,
2013-06-27 17:37:00,73.3,64.5,30.21,North,0,0.0,0.0,74,0.00,,,0.10,WUHU216HW,2013-06-28 00:37:00,
2013-06-27 17:42:00,73.1,64.4,30.21,North,0,0.0,0.0,74,0.00,,,0.10,WUHU216HW,2013-06-28 00:42:00,
2013-06-27 17:47:00,72.5,63.8,30.21,North,0,0.0,0.0,74,0.00,,,0.10,WUHU216HW,2013-06-28 00:47:00,
2013-06-27 17:52:00,72.4,64.0,30.21,North,0,0.0,0.0,75,0.00,,,0.10,WUHU216HW,2013-06-28 00:52:00,
2013-06-27 17:58:00,72.0,63.3,30.21,North,0,0.0,0.0,74,0.00,,,0.10,WUHU216HW,2013-06-28 00:58:00,
2013-06-27 18:03:00,71.5,62.7,30.21,North,0,0.0,0.0,74,0.00,,,0.10,WUHU216HW,2013-06-28 01:03:00,
2013-06-27 18:08:00,70.9,62.6,30.21,North,0,0.0,0.0,75,0.00,,,0.10,WUHU216HW,2013-06-28 01:08:00,
2013-06-27 18:13:00,70.6,62.6,30.21,North,0,0.0,0.0,76,0.00,,,0.10,WUHU216HW,2013-06-28 01:13:00,
2013-06-27 18:19:00,70.4,62.4,30.21,North,0,0.0,0.0,76,0.00,,,0.10,WUHU216HW,2013-06-28 01:19:00,
2013-06-27 18:24:00,70.2,62.6,30.21,North,0,0.0,0.0,77,0.00,,,0.10,WUHU216HW,2013-06-28 01:24:00,
2013-06-27 18:29:00,69.8,62.7,30.21,North,0,0.0,0.0,78,0.00,,,0.10,WUHU216HW,2013-06-28 01:29:00,
2013-06-27 18:34:00,69.1,61.9,30.21,North,0,0.0,0.0,78,0.00,,,0.10,WUHU216HW,2013-06-28 01:34:00,
2013-06-27 18:39:00,68.6,62.2,30.21,North,0,0.0,0.0,80,0.00,,,0.10,WUHU216HW,2013-06-28 01:39:00,
2013-06-27 18:44:00,68.2,62.2,30.21,North,0,0.0,0.0,81,0.00,,,0.10,WUHU216HW,2013-06-28 01:44:00,
2013-06-27 18:49:00,68.4,62.4,30.21,North,0,0.0,0.0,81,0.00,,,0.10,WUHU216HW,2013-06-28 01:49:00,
2013-06-27 18:54:00,68.0,62.1,30.21,North,0,0.0,0.0,81,0.00,,,0.10,WUHU216HW,2013-06-28 01:54:00,
2013-06-27 19:00:00,68.0,62.4,30.21,North,0,0.0,0.0,82,0.00,,,0.10,WUHU216HW,2013-06-28 02:00:00,
2013-06-27 19:05:00,68.0,62.4,30.21,North,0,0.0,0.0,82,0.00,,,0.10,WUHU216HW,2013-06-28 02:05:00,
2013-06-27 19:10:00,68.0,62.4,30.22,North,0,0.0,0.0,82,0.00,,,0.10,WUHU216HW,2013-06-28 02:10:00,
2013-06-27 19:15:00,67.5,62.2,30.22,North,0,0.0,0.0,83,0.00,,,0.10,WUHU216HW,2013-06-28 02:15:00,
2013-06-27 19:20:00,67.0,61.9,30.22,North,0,0.0,0.0,84,0.00,,,0.10,WUHU216HW,2013-06-28 02:20:00,
2013-06-27 19:25:00,66.8,61.7,30.22,North,0,0.0,0.0,84,0.00,,,0.10,WUHU216HW,2013-06-28 02:25:00,
2013-06-27 19:30:00,66.6,61.6,30.22,North,0,0.0,0.0,84,0.00,,,0.10,WUHU216HW,2013-06-28 02:30:00,
2013-06-27 19:36:00,66.6,61.6,30.22,North,0,0.0,0.0,84,0.00,,,0.10,WUHU216HW,2013-06-28 02:36:00,
2013-06-27 19:41:00,66.8,61.7,30.22,North,0,0.0,0.0,84,0.00,,,0.10,WUHU216HW,2013-06-28 02:41:00,
2013-06-27 19:46:00,67.0,61.9,30.21,North,0,0.0,0.0,84,0.00,,,0.10,WUHU216HW,2013-06-28 02:46:00,
2013-06-27 19:52:00,66.8,61.5,30.21,North,0,0.0,0.0,83,0.00,,,0.10,WUHU216HW,2013-06-28 02:52:00,
2013-06-27 19:57:00,67.0,61.7,30.21,North,0,0.0,0.0,83,0.00,,,0.10,WUHU216HW,2013-06-28 02:57:00,
2013-06-27 20:02:00,67.0,61.7,30.21,North,0,0.0,0.0,83,0.00,,,0.10,WUHU216HW,2013-06-28 03:02:00,
2013-06-27 20:08:00,66.8,61.5,30.22,North,0,0.0,0.0,83,0.00,,,0.10,WUHU216HW,2013-06-28 03:08:00,
2013-06-27 20:13:00,66.6,61.6,30.22,North,0,0.0,0.0,84,0.00,,,0.10,WUHU216HW,2013-06-28 03:13:00,
2013-06-27 20:18:00,66.4,61.4,30.22,North,0,0.0,0.0,84,0.00,,,0.10,WUHU216HW,2013-06-28 03:18:00,
2013-06-27 20:23:00,66.2,61.2,30.22,North,0,0.0,0.0,84,0.00,,,0.10,WUHU216HW,2013-06-28 03:23:00,
2013-06-27 20:29:00,66.1,61.0,30.22,North,0,0.0,0.0,84,0.00,,,0.10,WUHU216HW,2013-06-28 03:29:00,
2013-06-27 20:34:00,66.1,61.0,30.22,North,0,0.0,0.0,84,0.00,,,0.10,WUHU216HW,2013-06-28 03:34:00,
2013-06-27 20:39:00,66.1,61.0,30.22,North,0,0.0,0.0,84,0.00,,,0.10,WUHU216HW,2013-06-28 03:39:00,
2013-06-27 20:44:00,65.9,60.9,30.22,North,0,0.0,0.0,84,0.00,,,0.10,WUHU216HW,2013-06-28 03:44:00,
2013-06-27 20:49:00,65.7,61.0,30.22,North,0,0.0,0.0,85,0.00,,,0.10,WUHU216HW,2013-06-28 03:49:00,
2013-06-27 20:55:00,65.3,60.8,30.21,North,0,0.0,0.0,85,0.00,,,0.10,WUHU216HW,2013-06-28 03:55:00,
2013-06-27 21:00:00,65.2,60.6,30.22,North,0,0.0,0.0,85,0.00,,,0.10,WUHU216HW,2013-06-28 04:00:00,
2013-06-27 21:01:00,65.2,60.8,30.22,North,0,0.0,0.0,86,0.00,,,0.10,WUHU216HW,2013-06-28 04:01:00,
2013-06-27 21:06:00,65.0,60.4,30.22,North,0,0.0,0.0,85,0.00,,,0.10,WUHU216HW,2013-06-28 04:06:00,
2013-06-27 21:11:00,64.8,60.2,30.22,North,0,0.0,0.0,85,0.00,,,0.10,WUHU216HW,2013-06-28 04:11:00,
2013-06-27 21:16:00,64.6,60.4,30.21,North,0,0.0,0.0,86,0.00,,,0.10,WUHU216HW,2013-06-28 04:16:00,
2013-06-27 21:21:00,64.4,60.2,30.22,North,0,0.0,0.0,86,0.00,,,0.10,WUHU216HW,2013-06-28 04:21:00,
2013-06-27 21:26:00,64.3,60.0,30.22,North,0,0.0,0.0,86,0.00,,,0.10,WUHU216HW,2013-06-28 04:26:00,
2013-06-27 21:31:00,64.1,60.2,30.22,North,0,0.0,0.0,87,0.00,,,0.10,WUHU216HW,2013-06-28 04:31:00,
2013-06-27 21:36:00,64.1,60.2,30.22,North,0,0.0,0.0,87,0.00,,,0.10,WUHU216HW,2013-06-28 04:36:00,
2013-06-27 21:41:00,63.9,60.0,30.22,North,0,0.0,0.0,87,0.00,,,0.10,WUHU216HW,2013-06-28 04:41:00,
2013-06-27 21:46:00,63.7,59.9,30.22,North,0,0.0,0.0,87,0.00,,,0.10,WUHU216HW,2013-06-28 04:46:00,
2013-06-27 21:51:00,63.7,59.9,30.22,North,0,0.0,0.0,87,0.00,,,0.10,WUHU216HW,2013-06-28 04:51:00,
2013-06-27 21:56:00,63.7,59.9,30.22,North,0,0.0,0.0,87,0.00,,,0.10,WUHU216HW,2013-06-28 04:56:00,
2013-06-27 22:01:00,63.5,59.7,30.22,North,0,0.0,0.0,87,0.00,,,0.10,WUHU216HW,2013-06-28 05:01:00,
2013-06-27 22:06:00,63.5,59.9,30.22,North,0,0.0,0.0,88,0.00,,,0.10,WUHU216HW,2013-06-28 05:06:00,
2013-06-27 22:11:00,63.4,59.5,30.23,North,0,0.0,0.0,87,0.00,,,0.10,WUHU216HW,2013-06-28 05:11:00,
2013-06-27 22:16:00,63.4,59.8,30.22,North,0,0.0,0.0,88,0.00,,,0.10,WUHU216HW,2013-06-28 05:16:00,
2013-06-27 22:21:00,63.2,59.6,30.22,North,0,0.0,0.0,88,0.00,,,0.10,WUHU216HW,2013-06-28 05:21:00,
2013-06-27 22:26:00,63.0,59.8,30.22,North,0,0.0,0.0,89,0.00,,,0.10,WUHU216HW,2013-06-28 05:26:00,
2013-06-27 22:31:00,63.0,59.8,30.22,North,0,0.0,0.0,89,0.00,,,0.10,WUHU216HW,2013-06-28 05:31:00,
2013-06-27 22:36:00,63.0,59.8,30.21,North,0,0.0,0.0,89,0.00,,,0.10,WUHU216HW,2013-06-28 05:36:00,
2013-06-27 22:41:00,62.8,59.6,30.22,North,0,0.0,0.0,89,0.00,,,0.10,WUHU216HW,2013-06-28 05:41:00,
2013-06-27 22:46:00,62.8,59.6,30.22,North,0,0.0,0.0,89,0.00,,,0.10,WUHU216HW,2013-06-28 05:46:00,
2013-06-27 22:52:00,62.8,59.6,30.21,North,0,0.0,0.0,89,0.00,,,0.10,WUHU216HW,2013-06-28 05:52:00,
2013-06-27 22:57:00,62.8,59.6,30.21,North,0,0.0,0.0,89,0.00,,,0.10,WUHU216HW,2013-06-28 05:57:00,
2013-06-27 23:03:00,62.8,59.6,30.21,North,0,0.0,0.0,89,0.00,,,0.10,WUHU216HW,2013-06-28 06:03:00,
2013-06-27 23:08:00,62.8,59.6,30.21,North,0,0.0,0.0,89,0.00,,,0.10,WUHU216HW,2013-06-28 06:08:00,
2013-06-27 23:13:00,62.6,59.4,30.22,North,0,0.0,0.0,89,0.00,,,0.10,WUHU216HW,2013-06-28 06:13:00,
2013-06-27 23:18:00,62.6,59.8,30.21,North,0,0.0,0.0,90,0.00,,,0.10,WUHU216HW,2013-06-28 06:18:00,
2013-06-27 23:23:00,62.6,59.8,30.21,North,0,0.0,0.0,90,0.00,,,0.10,WUHU216HW,2013-06-28 06:23:00,
2013-06-27 23:28:00,62.6,59.8,30.21,North,0,0.0,0.0,90,0.00,,,0.10,WUHU216HW,2013-06-28 06:28:00,
2013-06-27 23:33:00,62.5,59.6,30.21,North,0,0.0,0.0,90,0.00,,,0.10,WUHU216HW,2013-06-28 06:33:00,
2013-06-27 23:38:00,62.5,59.6,30.21,North,0,0.0,0.0,90,0.00,,,0.10,WUHU216HW,2013-06-28 06:38:00,
2013-06-27 23:43:00,62.3,59.4,30.21,North,0,0.0,0.0,90,0.00,,,0.10,WUHU216HW,2013-06-28 06:43:00,
2013-06-27 23:48:00,62.3,59.4,30.21,North,0,0.0,0.0,90,0.00,,,0.10,WUHU216HW,2013-06-28 06:48:00,
2013-06-27 23:53:00,62.3,59.4,30.21,North,0,0.0,0.0,90,0.00,,,0.10,WUHU216HW,2013-06-28 06:53:00,
2013-06-27 23:58:00,62.3,59.4,30.21,North,0,0.0,0.0,90,0.00,,,0.10,WUHU216HW,2013-06-28 06:58:00,